Time;durP1;ratioP1;P1;durP2;ratioP2;P2;SDS_P1;SDS_P2;PMS_P1;PMS_P2;Temp;Humidity;BMP_temperature;BMP_pressure;BME280_temperature;BME280_humidity;BME280_pressure;Samples;Min_cycle;Max_cycle;Signal;HPM_P1;HPM_P2
2022/04/13 00:00:38;;;;;;;46.15;21.15;;;;;;;7.40;50.83;95204.69;4997193;28;20041;-79
2022/04/13 00:03:03;;;;;;;38.53;21.88;;;;;;;7.34;51.18;95213.25;5014272;28;20036;-78
2022/04/13 00:05:29;;;;;;;25.85;14.63;;;;;;;7.20;51.35;95208.09;5013690;28;20030;-78
2022/04/13 00:07:55;;;;;;;23.23;14.15;;;;;;;7.15;51.43;95207.88;4997139;28;20041;-78
2022/04/13 00:10:20;;;;;;;22.67;13.98;;;;;;;7.05;51.60;95212.69;5013356;28;20175;-79
2022/04/13 00:12:45;;;;;;;33.53;12.32;;;;;;;7.00;51.60;95199.56;4996704;28;20041;-78
2022/04/13 00:15:11;;;;;;;18.35;11.35;;;;;;;6.93;51.68;95199.56;5262223;23;20041;-79
2022/04/13 00:17:36;;;;;;;20.73;12.32;;;;;;;6.85;52.06;95199.78;5013489;28;20044;-78
2022/04/13 00:20:03;;;;;;;10.48;7.90;;;;;;;6.81;52.35;95200.34;5014058;28;20033;-77
2022/04/13 00:22:29;;;;;;;21.98;11.98;;;;;;;6.76;52.18;95200.16;5020967;28;20056;-78
2022/04/13 00:24:54;;;;;;;17.15;11.18;;;;;;;6.83;52.40;95203.53;4997375;28;20576;-78
2022/04/13 00:27:20;;;;;;;31.55;16.65;;;;;;;6.76;52.53;95203.53;5012623;28;20037;-78
2022/04/13 00:29:45;;;;;;;26.23;14.07;;;;;;;6.80;51.79;95201.34;4995862;28;20037;-79
2022/04/13 00:32:11;;;;;;;30.33;14.30;;;;;;;6.82;51.67;95202.72;5011833;28;20570;-78
2022/04/13 00:34:36;;;;;;;30.58;17.77;;;;;;;6.77;52.27;95205.13;5010877;28;20029;-78
2022/04/13 00:37:02;;;;;;;33.60;16.60;;;;;;;6.67;52.31;95204.72;5012908;28;20038;-79
2022/04/13 00:39:27;;;;;;;29.27;15.75;;;;;;;6.63;52.98;95201.72;5021908;28;20170;-78
2022/04/13 00:42:01;;;;;;;45.60;18.42;;;;;;;6.55;53.05;95198.56;5018692;28;20034;-78
2022/04/13 00:44:27;;;;;;;42.38;20.08;;;;;;;6.51;52.91;95205.91;5011540;28;20056;-79
2022/04/13 00:46:54;;;;;;;38.40;17.35;;;;;;;6.42;53.17;95207.06;4995495;28;20489;-79
2022/04/13 00:49:19;;;;;;;25.77;15.60;;;;;;;6.45;52.88;95204.09;5011744;28;20036;-79
2022/04/13 00:52:00;;;;;;;21.58;11.60;;;;;;;6.46;53.13;95204.88;5013585;28;20037;-79
2022/04/13 00:54:25;;;;;;;19.65;9.13;;;;;;;6.48;52.48;95208.06;4998339;28;20124;-79
2022/04/13 00:56:51;;;;;;;14.65;9.23;;;;;;;6.49;51.64;95202.69;5012162;28;20524;-79
2022/04/13 00:59:16;;;;;;;17.52;9.57;;;;;;;6.50;52.16;95208.66;4996018;28;20026;-80
2022/04/13 01:01:49;;;;;;;17.58;8.85;;;;;;;6.47;52.94;95209.06;5012249;28;20045;-79
2022/04/13 01:04:14;;;;;;;12.13;8.30;;;;;;;6.43;53.08;95208.66;5012086;28;20480;-79
2022/04/13 01:06:40;;;;;;;15.43;8.75;;;;;;;6.32;53.56;95212.59;4996427;28;20061;-79
2022/04/13 01:09:06;;;;;;;17.70;10.00;;;;;;;6.28;53.44;95208.03;5012466;28;20049;-79
2022/04/13 01:11:31;;;;;;;22.63;10.43;;;;;;;6.21;53.80;95202.84;5012048;28;20048;-79
2022/04/13 01:13:57;;;;;;;22.58;12.05;;;;;;;6.20;54.01;95206.44;4996129;28;20026;-79
2022/04/13 01:16:28;;;;;;;22.40;11.48;;;;;;;6.20;54.24;95208.22;5013788;28;20045;-79
2022/04/13 01:18:54;;;;;;;34.33;10.43;;;;;;;6.22;53.96;95211.41;4996183;28;20113;-79
2022/04/13 01:21:36;;;;;;;20.77;11.70;;;;;;;6.18;54.19;95211.00;4995689;28;20558;-79
2022/04/13 01:24:03;;;;;;;27.17;11.85;;;;;;;6.14;54.34;95214.94;5012413;28;20026;-79
2022/04/13 01:26:28;;;;;;;24.00;14.60;;;;;;;6.07;54.36;95213.34;4996188;28;20076;-78
2022/04/13 01:28:54;;;;;;;20.27;13.18;;;;;;;6.05;54.98;95210.16;5011867;28;20038;-79
2022/04/13 01:31:19;;;;;;;24.92;14.48;;;;;;;6.00;55.41;95215.88;5013513;28;20558;-79
2022/04/13 01:33:45;;;;;;;22.67;12.60;;;;;;;5.96;55.23;95205.16;4998891;28;20034;-79
2022/04/13 01:36:10;;;;;;;27.73;13.00;;;;;;;5.99;54.77;95212.50;5016744;28;20417;-78
2022/04/13 01:38:36;;;;;;;23.40;12.98;;;;;;;5.97;55.34;95217.06;5015025;28;20563;-80
2022/04/13 01:41:02;;;;;;;25.25;14.45;;;;;;;5.94;55.32;95212.28;5004149;28;20026;-80
2022/04/13 01:43:28;;;;;;;39.22;12.68;;;;;;;5.94;54.35;95209.72;5018222;28;20429;-79
2022/04/13 01:45:54;;;;;;;22.88;12.02;;;;;;;5.91;55.00;95210.09;5016167;28;20038;-79
2022/04/13 01:48:20;;;;;;;32.13;17.17;;;;;;;5.89;54.44;95206.91;5017050;28;20470;-79
2022/04/13 01:50:45;;;;;;;53.00;27.38;;;;;;;5.94;54.23;95204.56;5016782;28;20088;-79
2022/04/13 01:53:11;;;;;;;55.85;27.42;;;;;;;5.87;55.63;95214.03;5014985;28;20429;-79
2022/04/13 01:55:36;;;;;;;47.83;25.40;;;;;;;5.84;54.75;95209.22;5016985;28;20045;-79
2022/04/13 01:58:02;;;;;;;42.78;22.45;;;;;;;5.87;54.99;95206.28;4982925;28;20037;-80
2022/04/13 02:00:27;;;;;;;45.55;25.95;;;;;;;5.85;55.12;95205.66;5015247;28;20042;-80
2022/04/13 02:02:53;;;;;;;50.72;27.48;;;;;;;5.85;55.46;95215.19;5015167;28;20057;-80
2022/04/13 02:05:19;;;;;;;58.50;27.13;;;;;;;5.82;55.66;95211.22;4998325;28;20099;-80
2022/04/13 02:07:44;;;;;;;76.93;34.60;;;;;;;5.83;54.52;95212.00;5018601;28;20076;-80
2022/04/13 02:10:09;;;;;;;35.40;19.40;;;;;;;5.75;55.14;95210.41;5000786;28;20568;-79
2022/04/13 02:12:36;;;;;;;33.72;16.08;;;;;;;5.72;54.97;95200.47;5015111;28;20624;-79
2022/04/13 02:15:01;;;;;;;28.05;15.48;;;;;;;5.74;55.82;95208.81;4998325;28;20037;-79
2022/04/13 02:17:27;;;;;;;44.80;17.25;;;;;;;5.74;55.21;95198.50;5015858;28;20030;-79
2022/04/13 02:19:52;;;;;;;31.83;16.17;;;;;;;5.67;55.52;95208.75;5037748;28;20026;-79
2022/04/13 02:22:18;;;;;;;46.47;23.60;;;;;;;5.68;55.86;95201.81;5037091;28;20044;-79
2022/04/13 02:24:43;;;;;;;48.97;24.60;;;;;;;5.70;55.27;95202.44;5037742;28;20040;-78
2022/04/13 02:27:09;;;;;;;70.68;28.42;;;;;;;5.71;55.89;95204.03;5020513;28;20042;-79
2022/04/13 02:29:36;;;;;;;88.18;39.45;;;;;;;5.69;56.00;95200.81;5016713;28;20026;-79
2022/04/13 02:32:02;;;;;;;57.90;23.25;;;;;;;5.63;55.69;95204.97;4998306;28;20076;-79
2022/04/13 02:34:28;;;;;;;42.33;17.63;;;;;;;5.61;56.10;95208.75;4982381;28;20038;-79
2022/04/13 02:36:53;;;;;;;20.30;12.38;;;;;;;5.60;55.24;95212.31;5025662;28;20033;-79
2022/04/13 02:39:18;;;;;;;21.65;11.30;;;;;;;5.52;55.48;95196.97;5028798;28;20045;-79
2022/04/13 02:41:44;;;;;;;22.42;11.88;;;;;;;5.39;56.50;95201.09;5012524;28;20041;-79
2022/04/13 02:44:09;;;;;;;24.65;13.00;;;;;;;5.40;56.66;95199.31;5014728;28;20030;-79
2022/04/13 02:46:35;;;;;;;38.15;16.83;;;;;;;5.34;56.41;95200.84;5017206;28;20045;-79
2022/04/13 02:49:00;;;;;;;36.83;15.98;;;;;;;5.34;55.70;95198.28;5032910;28;20033;-78
2022/04/13 02:51:26;;;;;;;38.17;16.48;;;;;;;5.30;55.76;95191.91;5027031;28;20053;-80
2022/04/13 02:53:51;;;;;;;37.05;17.98;;;;;;;5.32;55.99;95192.50;5024676;28;20033;-78
2022/04/13 02:56:17;;;;;;;52.63;20.17;;;;;;;5.32;56.71;95200.25;5022798;28;20033;-79
2022/04/13 02:58:43;;;;;;;56.72;24.85;;;;;;;5.24;56.77;95197.84;5017473;28;20121;-79
2022/04/13 03:01:08;;;;;;;60.70;29.42;;;;;;;5.21;57.01;95198.22;4982536;28;20026;-80
2022/04/13 03:03:33;;;;;;;56.22;27.83;;;;;;;5.17;57.09;95194.41;4996319;28;20040;-78
2022/04/13 03:05:59;;;;;;;51.15;25.70;;;;;;;5.19;56.55;95201.94;4996913;28;20030;-79
2022/04/13 03:08:24;;;;;;;65.05;33.55;;;;;;;5.13;57.08;95206.06;5014125;28;20033;-80
2022/04/13 03:10:50;;;;;;;83.97;42.97;;;;;;;5.14;56.50;95207.66;4998016;28;20044;-79
2022/04/13 03:13:15;;;;;;;74.28;39.08;;;;;;;5.12;56.26;95217.38;4997936;28;20042;-80
2022/04/13 03:15:41;;;;;;;73.60;36.53;;;;;;;5.14;56.91;95207.66;5013944;28;20041;-80
2022/04/13 03:18:06;;;;;;;69.97;38.58;;;;;;;5.19;57.01;95207.09;5014273;28;20032;-79
2022/04/13 03:20:33;;;;;;;67.22;37.25;;;;;;;5.27;56.10;95212.91;5014520;28;20063;-79
2022/04/13 03:22:59;;;;;;;82.05;40.42;;;;;;;5.20;57.12;95212.06;4997621;28;20038;-79
2022/04/13 03:25:24;;;;;;;73.55;43.55;;;;;;;5.19;56.49;95214.84;4981928;28;20482;-80
2022/04/13 03:27:50;;;;;;;73.80;42.40;;;;;;;5.21;56.52;95218.03;4982098;28;20026;-79
2022/04/13 03:30:18;;;;;;;78.10;46.83;;;;;;;5.13;56.78;95213.81;5014191;28;20044;-80
2022/04/13 03:32:43;;;;;;;94.50;52.40;;;;;;;5.14;56.94;95212.81;5014277;28;20080;-79
2022/04/13 03:35:11;;;;;;;89.75;56.80;;;;;;;5.15;56.98;95209.25;5015936;28;20387;-79
2022/04/13 03:37:40;;;;;;;88.22;55.22;;;;;;;5.09;57.01;95213.41;5014573;28;20033;-79
2022/04/13 03:40:07;;;;;;;81.90;39.80;;;;;;;5.07;56.66;95217.94;4997881;28;20034;-78
2022/04/13 03:42:36;;;;;;;75.97;43.25;;;;;;;5.09;57.68;95220.34;5011769;28;20042;-77
2022/04/13 03:45:03;;;;;;;53.78;32.28;;;;;;;5.14;57.61;95217.97;4994630;28;20057;-77
2022/04/13 03:47:28;;;;;;;78.80;40.05;;;;;;;5.21;56.76;95223.19;4993419;28;20025;-77
2022/04/13 03:49:57;;;;;;;69.63;29.95;;;;;;;5.21;57.74;95224.00;5010975;28;20055;-77
2022/04/13 03:52:22;;;;;;;55.55;28.70;;;;;;;5.24;56.77;95223.63;5011252;28;20034;-77
2022/04/13 03:54:48;;;;;;;70.00;36.10;;;;;;;5.33;56.24;95222.47;5009490;28;20120;-77
2022/04/13 03:57:13;;;;;;;54.35;29.13;;;;;;;5.38;56.49;95222.72;5010050;28;20486;-77
2022/04/13 03:59:38;;;;;;;86.63;47.70;;;;;;;5.48;56.10;95224.94;5009927;28;20115;-76
2022/04/13 04:02:04;;;;;;;77.22;37.33;;;;;;;5.55;55.12;95230.16;5009725;28;20034;-77
2022/04/13 04:04:29;;;;;;;53.67;25.08;;;;;;;5.52;55.55;95235.66;4995211;28;20037;-77
2022/04/13 04:06:55;;;;;;;38.03;16.25;;;;;;;5.62;54.37;95241.28;4993322;28;20038;-76
2022/04/13 04:09:20;;;;;;;21.05;10.35;;;;;;;5.80;53.43;95236.41;5010501;28;20022;-76
2022/04/13 04:11:45;;;;;;;14.95;7.30;;;;;;;6.16;52.06;95237.97;5009668;28;20044;-76
2022/04/13 04:14:11;;;;;;;16.77;8.18;;;;;;;6.57;50.38;95243.06;5009843;28;20018;-77
2022/04/13 04:16:36;;;;;;;11.30;7.25;;;;;;;7.02;49.22;95245.91;5010253;28;20049;-76
2022/04/13 04:19:02;;;;;;;23.63;8.57;;;;;;;7.42;48.39;95244.09;5010223;28;20034;-77
2022/04/13 04:21:27;;;;;;;26.83;9.00;;;;;;;7.59;47.96;95250.44;5010165;28;20026;-76
2022/04/13 04:23:53;;;;;;;20.63;8.73;;;;;;;8.25;46.07;95239.06;5008995;28;20116;-77
2022/04/13 04:26:18;;;;;;;19.25;7.70;;;;;;;9.39;44.47;95249.28;5008835;28;20034;-77
2022/04/13 04:28:43;;;;;;;17.27;7.93;;;;;;;10.70;40.81;95243.63;5008814;28;20038;-76
2022/04/13 04:31:09;;;;;;;13.60;8.18;;;;;;;12.14;38.23;95259.72;5009904;28;20038;-77
2022/04/13 04:33:35;;;;;;;19.77;9.63;;;;;;;13.42;35.75;95252.34;5011294;28;20099;-78
2022/04/13 04:36:00;;;;;;;21.73;9.32;;;;;;;14.67;33.32;95261.31;5008539;28;20406;-78
2022/04/13 04:38:32;;;;;;;20.67;9.32;;;;;;;15.97;30.63;95261.88;5010070;28;20038;-78
2022/04/13 04:40:58;;;;;;;16.25;9.15;;;;;;;16.87;28.65;95262.50;5008825;28;20030;-77
2022/04/13 04:43:23;;;;;;;23.50;10.65;;;;;;;18.11;27.38;95272.75;5008509;28;20041;-77
2022/04/13 04:45:48;;;;;;;29.40;10.13;;;;;;;19.06;25.92;95276.06;5010392;28;20401;-78
2022/04/13 04:48:14;;;;;;;30.63;10.80;;;;;;;20.00;24.35;95273.97;5010653;28;20042;-77
2022/04/13 04:50:40;;;;;;;26.40;9.50;;;;;;;21.21;22.68;95276.22;5009158;28;20026;-78
2022/04/13 04:53:06;;;;;;;29.67;10.40;;;;;;;22.21;21.38;95270.66;4992529;28;20041;-88
2022/04/13 04:55:31;;;;;;;29.38;8.82;;;;;;;23.01;20.68;95284.19;4999314;28;20037;-85
2022/04/13 04:57:57;;;;;;;32.28;9.23;;;;;;;24.00;19.53;95284.28;4999142;28;20112;-88
2022/04/13 05:00:23;;;;;;;18.27;9.30;;;;;;;24.75;18.94;95278.03;4977861;28;20026;-88
2022/04/13 05:02:52;;;;;;;29.80;9.20;;;;;;;25.53;17.48;95286.84;4998028;28;20042;-89
2022/04/13 05:05:18;;;;;;;20.05;9.68;;;;;;;25.66;17.53;95287.78;4992708;28;20190;-88
2022/04/13 05:07:43;;;;;;;28.13;10.30;;;;;;;26.21;16.97;95282.53;4993999;28;20125;-89
2022/04/13 05:10:09;;;;;;;23.90;10.25;;;;;;;26.44;16.62;95290.31;4977369;28;20486;-89
2022/04/13 05:12:42;;;;;;;22.42;8.55;;;;;;;27.07;15.94;95291.25;4993724;28;20029;-88
2022/04/13 05:15:08;;;;;;;21.13;8.95;;;;;;;27.71;15.24;95283.69;5008898;28;20050;-89
2022/04/13 05:17:34;;;;;;;29.42;9.10;;;;;;;28.80;14.80;95289.50;4994723;28;20057;-87
2022/04/13 05:19:59;;;;;;;17.75;8.63;;;;;;;27.93;15.40;95284.41;4993777;28;20037;-88
2022/04/13 05:22:25;;;;;;;14.90;8.05;;;;;;;28.09;15.38;95278.09;4993782;28;20421;-86
2022/04/13 05:24:51;;;;;;;23.35;9.18;;;;;;;28.73;14.54;95283.94;4998559;23;20503;-88
2022/04/13 05:27:16;;;;;;;26.30;10.25;;;;;;;28.42;15.06;95284.50;4985942;23;20042;-86
2022/04/13 05:29:42;;;;;;;24.60;9.50;;;;;;;28.95;14.60;95291.53;4984627;28;20026;-87
2022/04/13 05:32:07;;;;;;;21.77;7.90;;;;;;;29.79;13.73;95294.34;4974296;28;20112;-87
2022/04/13 05:34:33;;;;;;;25.73;9.10;;;;;;;30.42;13.39;95295.22;4963365;28;20042;-87
2022/04/13 05:36:59;;;;;;;18.33;8.15;;;;;;;29.66;13.77;95293.63;4979609;28;20054;-86
2022/04/13 05:39:25;;;;;;;14.80;7.32;;;;;;;30.39;13.43;95292.44;4985773;28;20027;-85
2022/04/13 05:41:51;;;;;;;16.50;6.28;;;;;;;30.77;12.86;95291.88;4974668;28;20081;-85
2022/04/13 05:44:16;;;;;;;19.08;5.97;;;;;;;30.97;12.92;95290.78;4984293;28;20039;-85
2022/04/13 05:46:42;;;;;;;10.18;5.07;;;;;;;31.07;12.93;95281.38;4998689;28;20034;-87
2022/04/13 05:49:07;;;;;;;21.45;6.45;;;;;;;31.45;12.24;95288.75;4984055;28;20038;-87
2022/04/13 05:51:32;;;;;;;12.73;5.43;;;;;;;31.18;12.78;95290.47;4984127;28;20030;-87
2022/04/13 05:53:58;;;;;;;12.45;5.13;;;;;;;31.02;12.36;95287.81;4981343;28;20110;-87
2022/04/13 05:56:23;;;;;;;13.30;5.75;;;;;;;30.69;13.16;95288.22;4980880;28;20031;-87
2022/04/13 05:58:49;;;;;;;17.98;4.78;;;;;;;30.11;12.84;95281.81;4974663;28;20584;-87
2022/04/13 06:01:15;;;;;;;20.85;6.00;;;;;;;29.12;14.06;95291.28;4981883;28;20031;-88
2022/04/13 06:03:41;;;;;;;9.98;5.13;;;;;;;28.06;14.47;95294.00;4981394;28;20039;-87
2022/04/13 06:06:06;;;;;;;12.80;5.15;;;;;;;27.28;15.12;95299.25;4981512;28;20086;-86
2022/04/13 06:08:32;;;;;;;11.38;5.57;;;;;;;26.98;15.81;95303.81;4964976;28;20395;-87
2022/04/13 06:10:57;;;;;;;18.45;6.20;;;;;;;26.71;16.38;95299.75;4980234;28;20026;-87
2022/04/13 06:13:23;;;;;;;19.55;5.78;;;;;;;26.27;16.74;95297.22;4982077;28;20394;-85
2022/04/13 06:15:48;;;;;;;17.10;6.43;;;;;;;25.95;16.71;95306.56;4981860;28;20035;-85
2022/04/13 06:18:14;;;;;;;11.38;6.70;;;;;;;25.13;17.10;95304.88;5000020;28;20065;-87
2022/04/13 06:20:39;;;;;;;17.50;6.50;;;;;;;24.72;17.70;95313.19;5002619;28;20041;-87
2022/04/13 06:23:05;;;;;;;14.38;5.70;;;;;;;24.16;17.81;95302.19;4985526;28;20406;-88
2022/04/13 06:25:31;;;;;;;10.70;6.20;;;;;;;23.61;18.45;95314.97;5009800;28;20045;-87
2022/04/13 06:27:56;;;;;;;8.27;5.82;;;;;;;23.22;19.68;95311.03;5009647;28;20050;-87
2022/04/13 06:30:22;;;;;;;13.35;6.53;;;;;;;22.00;19.97;95307.31;4988538;28;20038;-85
2022/04/13 06:32:47;;;;;;;19.02;6.88;;;;;;;21.49;20.66;95311.56;4985979;28;20623;-86
2022/04/13 06:35:15;;;;;;;15.52;6.95;;;;;;;21.28;21.12;95307.63;5002489;28;20042;-86
2022/04/13 06:37:43;;;;;;;26.80;7.68;;;;;;;21.11;21.58;95315.25;4986530;28;20038;-87
2022/04/13 06:40:09;;;;;;;19.77;7.55;;;;;;;20.43;21.99;95307.66;4975731;28;20053;-87
2022/04/13 06:42:37;;;;;;;21.38;8.07;;;;;;;20.17;22.46;95307.88;5000972;28;20411;-87
2022/04/13 06:45:06;;;;;;;23.15;7.60;;;;;;;20.06;22.55;95303.78;4986386;28;20045;-87
2022/04/13 06:47:31;;;;;;;24.02;8.40;;;;;;;20.10;22.98;95304.78;4977979;28;20041;-87
2022/04/13 06:49:57;;;;;;;17.77;9.07;;;;;;;20.03;23.08;95306.97;5000951;28;20053;-87
2022/04/13 06:52:22;;;;;;;16.17;8.65;;;;;;;19.57;23.54;95312.66;5068688;23;20130;-86
2022/04/13 06:54:48;;;;;;;15.13;8.68;;;;;;;19.07;23.99;95309.25;4991293;28;20042;-87
2022/04/13 06:57:13;;;;;;;24.05;9.10;;;;;;;18.87;23.82;95311.97;4977065;28;20042;-86
2022/04/13 06:59:39;;;;;;;24.02;10.07;;;;;;;18.53;24.60;95320.53;4968409;28;20120;-87
2022/04/13 07:02:10;;;;;;;27.35;10.43;;;;;;;18.45;24.88;95310.56;4994683;28;20033;-86
2022/04/13 07:04:37;;;;;;;22.85;9.20;;;;;;;18.57;24.67;95313.69;4976938;28;20031;-86
2022/04/13 07:07:02;;;;;;;22.00;8.20;;;;;;;18.56;24.89;95309.47;4984759;28;20031;-85
2022/04/13 07:09:28;;;;;;;21.10;9.60;;;;;;;18.69;24.76;95316.03;4983847;28;20461;-86
2022/04/13 07:11:54;;;;;;;25.63;8.57;;;;;;;18.65;24.27;95308.94;4970162;28;20046;-86
2022/04/13 07:14:20;;;;;;;24.92;9.35;;;;;;;18.61;24.50;95316.56;4970135;28;20494;-86
2022/04/13 07:16:45;;;;;;;20.55;9.90;;;;;;;18.52;25.04;95318.94;4972093;28;20038;-86
2022/04/13 07:19:11;;;;;;;26.13;9.32;;;;;;;18.42;24.84;95318.22;4989102;28;20819;-85
2022/04/13 07:21:36;;;;;;;20.77;8.38;;;;;;;18.41;25.10;95317.44;4996380;28;20027;-86
2022/04/13 07:24:02;;;;;;;19.77;7.78;;;;;;;18.52;24.72;95318.94;4967117;28;20063;-86
2022/04/13 07:26:28;;;;;;;15.00;8.18;;;;;;;18.54;24.77;95327.38;4975249;28;20038;-86
2022/04/13 07:28:54;;;;;;;24.83;9.60;;;;;;;18.49;24.31;95319.50;4991161;28;20030;-86
2022/04/13 07:31:20;;;;;;;18.80;8.23;;;;;;;18.54;24.73;95322.09;4969430;28;20038;-85
2022/04/13 07:33:45;;;;;;;22.65;8.85;;;;;;;18.45;24.71;95313.19;4954476;28;20425;-86
2022/04/13 07:36:12;;;;;;;16.05;9.02;;;;;;;18.53;25.64;95315.25;4977309;28;20030;-86
2022/04/13 07:38:38;;;;;;;24.17;9.60;;;;;;;18.48;24.51;95312.66;4985168;28;20035;-86
2022/04/13 07:41:04;;;;;;;21.70;9.35;;;;;;;18.47;25.29;95318.19;4979893;28;20035;-85
2022/04/13 07:43:30;;;;;;;18.92;9.40;;;;;;;18.49;24.89;95308.97;4986457;28;20030;-86
2022/04/13 07:45:59;;;;;;;18.77;8.93;;;;;;;18.43;25.84;95314.53;4970810;28;20039;-85
2022/04/13 07:48:24;;;;;;;21.50;9.85;;;;;;;18.49;25.87;95314.22;5034803;23;20038;-86
2022/04/13 07:50:50;;;;;;;24.52;9.15;;;;;;;18.58;25.57;95312.63;4998073;28;20045;-86
2022/04/13 07:53:15;;;;;;;21.55;9.48;;;;;;;18.68;26.03;95311.03;4980108;28;20133;-85
2022/04/13 07:55:41;;;;;;;21.63;9.65;;;;;;;18.79;24.94;95317.84;5009825;28;20306;-86
2022/04/13 07:58:07;;;;;;;21.50;8.75;;;;;;;18.81;25.52;95316.50;4983722;28;20070;-86
2022/04/13 08:00:32;;;;;;;18.17;8.95;;;;;;;18.81;24.75;95310.44;5011643;23;20023;-86
2022/04/13 08:02:58;;;;;;;17.48;9.70;;;;;;;18.71;24.40;95308.66;5014202;28;20048;-86
2022/04/13 08:05:23;;;;;;;23.75;9.73;;;;;;;18.69;24.58;95308.13;5000334;28;20038;-86
2022/04/13 08:07:49;;;;;;;19.73;9.30;;;;;;;18.70;25.68;95308.91;5001447;28;20511;-86
2022/04/13 08:10:14;;;;;;;21.63;9.57;;;;;;;18.70;25.03;95303.63;4999946;28;20477;-86
2022/04/13 08:12:40;;;;;;;23.33;8.85;;;;;;;18.77;25.32;95309.41;4998066;28;20034;-86
2022/04/13 08:15:07;;;;;;;20.73;8.57;;;;;;;18.72;24.76;95304.97;5017089;28;20045;-85
2022/04/13 08:17:32;;;;;;;12.57;7.35;;;;;;;18.51;24.75;95312.09;4998209;28;20481;-84
2022/04/13 08:19:58;;;;;;;15.93;8.45;;;;;;;18.38;24.43;95312.69;5013192;28;20046;-84
2022/04/13 08:22:27;;;;;;;16.23;7.80;;;;;;;18.25;24.62;95310.63;5014307;28;20056;-85
2022/04/13 08:24:53;;;;;;;22.23;8.32;;;;;;;18.28;25.27;95317.97;4997077;28;20030;-86
2022/04/13 08:27:18;;;;;;;17.85;8.63;;;;;;;18.29;24.50;95309.03;4999058;28;20044;-84
2022/04/13 08:29:46;;;;;;;13.95;7.95;;;;;;;18.22;24.10;95305.88;4997620;28;20406;-84
2022/04/13 08:32:12;;;;;;;13.65;7.68;;;;;;;18.11;24.28;95309.59;4996169;28;20029;-86
2022/04/13 08:34:38;;;;;;;22.30;7.22;;;;;;;18.02;23.90;95303.28;4998696;28;20048;-84
2022/04/13 08:37:03;;;;;;;15.80;5.80;;;;;;;18.03;23.82;95303.03;5000512;28;20058;-82
2022/04/13 08:39:29;;;;;;;9.82;5.70;;;;;;;17.97;22.20;95301.47;4999240;28;20038;-84
2022/04/13 08:41:58;;;;;;;16.25;6.65;;;;;;;17.93;23.95;95306.47;5002459;28;20042;-84
2022/04/13 08:44:45;;;;;;;22.83;6.72;;;;;;;17.91;23.38;95294.66;5087945;23;20045;-86
2022/04/13 08:47:29;;;;;;;11.50;5.90;;;;;;;17.99;23.38;95300.13;5033975;28;20042;-86
2022/04/13 08:49:55;;;;;;;22.20;5.47;;;;;;;18.03;23.31;95294.34;5016069;28;20038;-87
2022/04/13 08:52:24;;;;;;;8.50;4.55;;;;;;;18.10;22.15;95295.66;5016652;28;20064;-87
2022/04/13 08:55:03;;;;;;;10.63;5.80;;;;;;;18.11;22.23;95291.97;5015801;28;20037;-87
2022/04/13 08:57:29;;;;;;;10.05;5.53;;;;;;;18.07;22.89;95287.50;5019862;28;20033;-87
2022/04/13 09:00:06;;;;;;;7.85;4.90;;;;;;;17.99;21.17;95292.25;5034468;28;20520;-87
2022/04/13 09:02:50;;;;;;;9.02;5.30;;;;;;;17.90;22.34;95291.22;5199995;22;20691;-86
2022/04/13 09:05:28;;;;;;;8.05;4.75;;;;;;;17.80;22.04;95287.81;5020062;23;20050;-86
2022/04/13 09:08:26;;;;;;;9.00;5.05;;;;;;;17.68;22.57;95282.81;5018868;28;20038;-86
2022/04/13 09:10:52;;;;;;;8.32;5.22;;;;;;;17.68;21.51;95282.81;5003707;28;20092;-86
2022/04/13 09:13:19;;;;;;;7.28;5.07;;;;;;;17.57;21.92;95270.69;4997649;28;20049;-86
2022/04/13 09:15:45;;;;;;;8.30;4.93;;;;;;;17.53;22.31;95280.16;4998746;28;20581;-86
2022/04/13 09:18:11;;;;;;;10.07;4.93;;;;;;;17.46;22.29;95269.13;4979603;28;20042;-85
2022/04/13 09:20:37;;;;;;;9.13;5.22;;;;;;;17.45;22.19;95272.81;5015029;28;20069;-87
2022/04/13 09:23:03;;;;;;;12.48;5.07;;;;;;;17.36;21.61;95275.16;4998006;28;20100;-86
2022/04/13 09:25:30;;;;;;;9.90;4.68;;;;;;;17.28;20.82;95262.56;4996141;28;20104;-86
2022/04/13 09:27:55;;;;;;;11.30;5.03;;;;;;;17.18;20.97;95268.59;5019574;23;20074;-87
2022/04/13 09:30:21;;;;;;;7.65;4.45;;;;;;;17.09;20.53;95265.69;5002020;28;20051;-87
2022/04/13 09:32:46;;;;;;;9.20;4.55;;;;;;;16.82;20.46;95266.97;4961030;28;20399;-86
2022/04/13 09:35:12;;;;;;;9.52;4.20;;;;;;;16.57;20.63;95263.16;4974355;28;20061;-86
2022/04/13 09:37:37;;;;;;;7.43;3.35;;;;;;;16.38;21.37;95264.69;4957413;28;20027;-86
2022/04/13 09:40:03;;;;;;;7.63;4.05;;;;;;;16.13;21.94;95266.16;4942671;28;20459;-86
2022/04/13 09:42:29;;;;;;;15.13;4.22;;;;;;;16.19;22.42;95262.50;4941882;28;20053;-86
2022/04/13 09:44:56;;;;;;;6.93;3.58;;;;;;;16.27;23.01;95263.06;4942473;28;20027;-85
2022/04/13 09:47:21;;;;;;;7.68;4.45;;;;;;;16.29;22.39;95260.97;4959564;28;20129;-86
2022/04/13 09:49:52;;;;;;;7.50;3.88;;;;;;;16.26;22.20;95256.22;4958167;28;20039;-87
2022/04/13 09:52:20;;;;;;;8.68;4.13;;;;;;;16.15;23.34;95250.94;4961060;28;20031;-87
2022/04/13 09:54:46;;;;;;;5.78;4.03;;;;;;;16.18;23.36;95245.19;4947733;28;20046;-87
2022/04/13 09:57:24;;;;;;;6.65;4.47;;;;;;;16.16;23.67;95247.28;4979713;28;20571;-86
2022/04/13 09:59:54;;;;;;;6.80;4.07;;;;;;;16.20;23.55;95248.34;4983191;28;20050;-86
2022/04/13 10:02:36;;;;;;;7.28;3.72;;;;;;;16.27;23.49;95242.06;4968584;28;20035;-87
2022/04/13 10:05:05;;;;;;;10.38;3.70;;;;;;;16.25;23.26;95238.91;4982966;28;20043;-87
2022/04/13 10:07:31;;;;;;;5.70;3.55;;;;;;;16.24;23.27;95235.50;5003036;28;20037;-81
2022/04/13 10:09:56;;;;;;;6.85;3.45;;;;;;;16.27;24.10;95242.06;5042957;23;20537;-83
2022/04/13 10:12:21;;;;;;;5.78;3.58;;;;;;;16.29;24.65;95240.78;5035243;28;20127;-82
2022/04/13 10:14:47;;;;;;;5.65;3.72;;;;;;;16.37;25.10;95236.84;5019815;28;20040;-81
2022/04/13 10:17:13;;;;;;;5.25;3.33;;;;;;;16.38;24.51;95227.94;5039798;28;20034;-81
2022/04/13 10:19:45;;;;;;;5.13;3.53;;;;;;;16.38;24.90;95235.81;5015857;28;20033;-81
2022/04/13 10:22:10;;;;;;;4.90;3.70;;;;;;;16.34;24.18;95238.16;4996105;28;20121;-81
2022/04/13 10:24:40;;;;;;;7.93;3.83;;;;;;;16.28;23.91;95238.41;5010849;28;20069;-81
2022/04/13 10:27:12;;;;;;;6.60;3.70;;;;;;;16.29;24.22;95230.28;5015556;28;20037;-81
2022/04/13 10:29:40;;;;;;;7.78;4.07;;;;;;;16.16;24.16;95220.25;5026971;28;20030;-79
2022/04/13 10:32:13;;;;;;;4.50;3.80;;;;;;;16.17;24.88;95225.25;4989653;28;20714;-77
2022/04/13 10:34:42;;;;;;;;;;;;;;;16.21;24.03;95223.69;5023270;28;20100;-79
2022/04/13 10:37:09;;;;;;;6.25;2.88;;;;;;;16.18;23.92;95224.19;5020757;28;19994;-77
2022/04/13 10:39:35;;;;;;;7.20;3.65;;;;;;;16.21;24.79;95221.06;5022296;28;20038;-76
2022/04/13 10:42:03;;;;;;;4.97;2.80;;;;;;;16.35;25.55;95212.72;5028763;28;20517;-77
2022/04/13 10:44:32;;;;;;;3.72;2.80;;;;;;;16.38;24.11;95212.19;4987606;28;20494;-77
2022/04/13 10:47:03;;;;;;;3.45;3.15;;;;;;;16.48;24.66;95206.97;5004525;28;20052;-77
2022/04/13 10:49:58;;;;;;;3.67;2.92;;;;;;;16.56;23.84;95209.09;5003901;28;20092;-78
2022/04/13 10:52:34;;;;;;;5.53;3.10;;;;;;;16.60;22.93;95204.91;5021095;28;20056;-78
2022/04/13 10:55:30;;;;;;;8.07;2.95;;;;;;;16.64;23.01;95200.72;5003907;28;20037;-77
2022/04/13 10:58:21;;;;;;;2.97;2.67;;;;;;;16.72;22.78;95202.84;4972023;28;20390;-77
2022/04/13 11:00:47;;;;;;;3.30;3.00;;;;;;;16.80;22.65;95204.19;4952409;28;20050;-77
2022/04/13 11:03:13;;;;;;;5.70;3.42;;;;;;;16.88;22.79;95198.41;4955062;28;20530;-78
2022/04/13 11:05:40;;;;;;;7.63;2.75;;;;;;;16.88;23.05;95192.38;4957022;28;20047;-81
2022/04/13 11:08:30;;;;;;;4.50;3.45;;;;;;;16.98;22.67;95190.53;4948378;28;20050;-78
2022/04/13 11:10:55;;;;;;;4.35;3.55;;;;;;;16.87;22.64;95188.16;4957263;28;20122;-79
2022/04/13 11:13:21;;;;;;;8.48;4.28;;;;;;;16.66;23.47;95184.69;4938435;28;20030;-78
2022/04/13 11:15:48;;;;;;;4.72;3.58;;;;;;;16.32;23.36;95186.97;4956840;28;20042;-78
2022/04/13 11:18:16;;;;;;;3.60;3.20;;;;;;;16.11;23.51;95181.69;4974495;28;20034;-78
2022/04/13 11:21:10;;;;;;;8.40;3.03;;;;;;;16.19;23.57;95183.00;4974757;28;20050;-78
2022/04/13 11:23:49;;;;;;;3.55;2.67;;;;;;;16.24;22.92;95182.22;4960624;28;20059;-79
2022/04/13 11:26:41;;;;;;;3.85;3.00;;;;;;;16.25;22.92;95181.16;4958346;28;20031;-78